Station: Badgingarra  

  Atmospheric Gas Attenuation - ITU Rec 676-11   ----------------- dB/100km -----------------
Date Time Temp RH % AH g/m3 Dew Point Wind Direction Speed kph Gust kph Barometer mB Rainfall Since 9am 24GHz 47GHz 76GHz 122GHz 134GHz 241GHz
06/09 11:30 14.8 85 10.77 12.3 24 33 1013.1 0 24.2 29.2 48.2 127.0 126.5 437.0
06/09 11:20 14.7 86 10.83 12.4 26 35 1013.1 0 24.3 29.3 48.6 127.8 127.5 440.5
06/09 11:10 14.5 87 10.82 12.4 24 35 1013.1 0 24.3 29.4 48.6 128.0 127.7 441.1
06/09 11:00 15.1 84 10.84 12.4 24 30 1013.1 0 24.3 29.2 48.3 127.3 127.0 438.7
06/09 10:50 14.7 87 10.95 12.6 24 33 1013.1 0 24.6 29.5 49.1 129.2 129.2 446.4
06/09 10:40 14.1 89 10.8 12.3 22 32 1013.1 0 24.3 29.5 48.8 128.5 128.1 442.4
06/09 10:30 14.1 87 10.56 12 24 33 1013.1 0 23.8 29.1 47.8 125.7 124.7 430.6
06/09 10:20 14.4 88 10.88 12.4 26 35 1013.1 0 24.4 29.5 49.0 128.9 128.7 444.7
06/09 10:10 13.9 87 10.43 11.8 24 35 1013.1 0 23.5 28.9 47.3 124.6 123.2 425.3
06/09 10:00 14.2 89 10.87 12.4 22 32 1013.1 0 24.4 29.6 49.0 129.1 128.9 445.3
06/09 09:50 13.9 87 10.43 11.8 22 30 1013.1 0 23.5 28.9 47.3 124.6 123.2 425.3
06/09 09:40 13.8 86 10.25 11.5 22 32 1013.1 0 23.1 28.6 46.6 122.7 120.8 417.0
06/09 09:30 13.8 87 10.37 11.7 22 32 1013.1 0 23.4 28.8 47.1 124.0 122.5 422.9
06/09 09:20 13.7 87 10.3 11.6 22 30 1013.1 0 23.2 28.8 46.9 123.4 121.7 420.0
06/09 09:10 13.6 87 10.24 11.5 24 32 1013.1 0 23.1 28.7 46.7 122.9 121.0 417.6
06/09 09:00 13.3 88 10.17 11.4 22 32 1013.1 0 23.0 28.7 46.6 122.5 120.5 415.7
06/09 08:50 12.9 91 10.26 11.5 22 30 1013.1 0.2 23.2 29.0 47.2 124.2 122.4 422.4
06/09 08:40 12.7 94 10.46 11.8 20 26 1013.1 0.2 23.6 29.4 48.2 126.9 125.6 433.4
06/09 08:30 12.1 95 10.19 11.3 20 30 1013.1 0.2 23.1 29.1 47.4 124.7 122.7 423.3
06/09 08:20 11.8 95 10 11 20 28 1013.1 0.2 22.7 28.9 46.7 123.0 120.5 415.4
06/09 08:10 11.7 95 9.94 10.9 24 32 1013.1 0.2 22.6 28.8 46.5 122.4 119.8 413.0
06/09 08:00 11.6 95 9.88 10.8 22 28 1013.1 0.2 22.5 28.7 46.3 121.9 119.1 410.5
06/09 07:50 11.5 95 9.81 10.7 20 28 1013.1 0.2 22.3 28.6 46.1 121.2 118.2 407.5
06/09 07:40 11.3 95 9.69 10.5 24 32 1013.1 0.2 22.1 28.5 45.7 120.2 116.8 402.6
06/09 07:30 11.3 95 9.69 10.5 22 35 1013.1 0.2 22.1 28.5 45.7 120.2 116.8 402.6
06/09 07:20 11.2 94 9.53 10.3 24 33 1013.1 0.2 21.7 28.2 45.1 118.5 114.7 395.2
06/09 07:10 11.1 94 9.47 10.2 28 39 1013.1 0.2 21.6 28.2 44.9 117.9 114.0 392.7
06/09 07:00 11.1 95 9.57 10.3 26 35 1013.1 0.2 21.8 28.3 45.3 119.1 115.4 397.7
06/09 06:50 10.9 95 9.45 10.1 24 35 1013.1 0.2 21.6 28.2 44.9 118.0 114.0 392.8
06/09 06:40 10.7 95 9.33 9.9 22 30 1013.1 0.2 21.3 28.1 44.5 116.9 112.6 387.8
06/09 06:30 10.5 95 9.22 9.7 20 30 1013.1 0.2 21.1 27.9 44.1 116.0 111.4 383.4
06/09 06:20 10.3 95 9.1 9.5 22 30 1013.1 0.2 20.8 27.8 43.7 114.9 110.0 378.4
06/09 06:10 10.2 95 9.04 9.4 22 28 1013.1 0.2 20.7 27.7 43.5 114.4 109.3 376.0
06/09 06:00 10.2 95 9.04 9.4 22 28 1013.1 0.2 20.7 27.7 43.5 114.4 109.3 376.0
06/09 05:50 10.2 96 9.14 9.6 24 33 1013.1 0.2 20.9 27.9 44.0 115.5 110.7 380.9
06/09 05:40 10.2 96 9.14 9.6 24 33 1013.1 0.2 20.9 27.9 44.0 115.5 110.7 380.9
06/09 05:30 10.1 97 9.17 9.6 19 26 1013.1 0.2 21.0 28.0 44.1 116.0 111.2 382.9
06/09 05:20 10.1 97 9.17 9.6 19 22 1013.1 0.2 21.0 28.0 44.1 116.0 111.2 382.9
06/09 05:10 10.3 97 9.29 9.8 19 24 1013.1 0.2 21.3 28.1 44.5 117.1 112.6 387.9
06/09 05:00 10.3 97 9.29 9.8 17 22 1013.1 0.2 21.3 28.1 44.5 117.1 112.6 387.9
06/09 04:50 10.2 97 9.23 9.7 17 22 1013.1 0.2 21.1 28.0 44.3 116.5 111.9 385.4
06/09 04:40 10.3 97 9.29 9.8 19 24 1013.1 0.2 21.3 28.1 44.5 117.1 112.6 387.9
06/09 04:30 10.3 97 9.29 9.8 19 22 1013.1 0.2 21.3 28.1 44.5 117.1 112.6 387.9
06/09 04:20 10.2 97 9.23 9.7 17 20 1013.1 0.2 21.1 28.0 44.3 116.5 111.9 385.4
06/09 04:10 10.4 96 9.25 9.8 19 24 1013.1 0 21.2 28.0 44.3 116.5 111.9 385.4
06/09 04:00 10.5 96 9.31 9.9 19 24 1013.1 0 21.3 28.1 44.5 117.0 112.6 387.8
06/09 03:50 10.3 96 9.2 9.7 17 22 1013.1 0 21.1 28.0 44.2 116.0 111.4 383.4
06/09 03:40 10.4 96 9.25 9.8 17 20 1013.1 0 21.2 28.0 44.3 116.5 111.9 385.4
06/09 03:30 10.4 96 9.25 9.8 19 22 1013.1 0 21.2 28.0 44.3 116.5 111.9 385.4
06/09 03:20 10.5 96 9.31 9.9 17 20 1013.1 0 21.3 28.1 44.5 117.0 112.6 387.8
06/09 03:10 10.6 96 9.37 10 15 22 1013.1 0 21.4 28.2 44.7 117.5 113.3 390.3
06/09 03:00 10.7 96 9.43 10.1 13 17 1013.1 0 21.5 28.2 44.9 118.1 114.0 392.8
06/09 02:50 10.8 96 9.49 10.2 13 15 1013.1 0 21.7 28.3 45.1 118.6 114.7 395.3
06/09 02:40 10.6 96 9.37 10 13 15 1013.1 0 21.4 28.2 44.7 117.5 113.3 390.3
06/09 02:30 10.5 96 9.31 9.9 13 15 1013.1 0 21.3 28.1 44.5 117.0 112.6 387.8
06/09 02:20 10.1 96 9.08 9.5 13 15 1013.1 0 20.8 27.8 43.7 115.0 110.0 378.4
06/09 02:10 9.5 95 8.65 8.7 7 11 1013.1 0 19.9 27.3 42.2 110.9 104.7 360.1
06/09 02:00 9.8 96 8.91 9.2 7 9 1013.1 0 20.5 27.6 43.2 113.5 108.0 371.5
06/09 01:50 10.1 96 9.08 9.5 7 9 1013.1 0 20.8 27.8 43.7 115.0 110.0 378.4
06/09 01:40 10.4 96 9.25 9.8 7 9 1013.1 0 21.2 28.0 44.3 116.5 111.9 385.4
06/09 01:30 10.6 95 9.27 9.8 7 9 1013.1 0 21.2 28.0 44.3 116.4 111.9 385.4
06/09 01:20 10.9 95 9.45 10.1 6 9 1013.1 0 21.6 28.2 44.9 118.0 114.0 392.8
06/09 01:10 11.2 96 9.73 10.6 11 13 1013.1 0 22.2 28.6 45.9 120.8 117.6 405.1
06/09 01:00 11.3 96 9.79 10.7 11 13 1013.1 0 22.3 28.7 46.1 121.3 118.3 407.6
06/09 00:50 11.3 95 9.69 10.5 11 15 1013.1 0 22.1 28.5 45.7 120.2 116.8 402.6
06/09 00:40 11.3 96 9.79 10.7 7 11 1013.1 0 22.3 28.7 46.1 121.3 118.3 407.6
06/09 00:30 11.1 95 9.57 10.3 7 7 1013.1 0 21.8 28.3 45.3 119.1 115.4 397.7
06/09 00:20 11.2 95 9.63 10.4 4 7 1013.1 0 21.9 28.4 45.5 119.6 116.1 400.2
06/09 00:10 11.1 95 9.57 10.3 6 6 1013.1 0 21.8 28.3 45.3 119.1 115.4 397.7
06/09 00:00 11.2 95 9.63 10.4 0 4 1013.1 0 21.9 28.4 45.5 119.6 116.1 400.2
05/09 23:50 11.4 95 9.75 10.6 0 0 1013.1 0 22.2 28.6 45.9 120.7 117.5 405.1
05/09 23:40 11.5 95 9.81 10.7 0 0 1013.1 0 22.3 28.6 46.1 121.2 118.2 407.5
05/09 23:30 11.5 95 9.81 10.7 0 0 1013.1 0 22.3 28.6 46.1 121.2 118.2 407.5
05/09 23:20 11.4 95 9.75 10.6 2 6 1013.1 0 22.2 28.6 45.9 120.7 117.5 405.1
05/09 23:10 11.7 95 9.94 10.9 6 7 1013.1 0 22.6 28.8 46.5 122.4 119.8 413.0
05/09 23:00 11.8 95 10 11 7 7 1013.1 0 22.7 28.9 46.7 123.0 120.5 415.4
05/09 22:50 12 95 10.13 11.2 7 9 1013.1 0 23.0 29.0 47.2 124.2 122.0 420.8
05/09 22:40 11.8 95 10 11 7 9 1013.1 0 22.7 28.9 46.7 123.0 120.5 415.4
05/09 22:30 11.9 95 10.06 11.1 7 9 1013.1 0 22.8 28.9 46.9 123.5 121.2 417.9
05/09 22:20 11.8 95 10 11 9 11 1013.1 0 22.7 28.9 46.7 123.0 120.5 415.4
05/09 22:10 12 95 10.13 11.2 9 11 1013.1 0 23.0 29.0 47.2 124.2 122.0 420.8
05/09 22:00 11.9 95 10.06 11.1 9 11 1013.1 0 22.8 28.9 46.9 123.5 121.2 417.9
05/09 21:50 12.1 95 10.19 11.3 9 11 1013.1 0 23.1 29.1 47.4 124.7 122.7 423.3
05/09 21:40 12.1 95 10.19 11.3 9 11 1013.1 0 23.1 29.1 47.4 124.7 122.7 423.3
05/09 21:30 11.9 94 9.96 11 6 7 1013.1 0 22.6 28.8 46.5 122.3 119.7 412.9
05/09 21:20 11.9 94 9.96 11 9 13 1013.1 0 22.6 28.8 46.5 122.3 119.7 412.9
05/09 21:10 12 94 10.02 11.1 9 13 1013.1 0 22.7 28.8 46.7 122.9 120.4 415.3
05/09 21:00 12.2 94 10.14 11.3 7 9 1013.1 0 23.0 29.0 47.1 123.9 121.8 420.2
05/09 20:50 12.5 94 10.34 11.6 9 11 1013.1 0 23.4 29.2 47.8 125.8 124.2 428.6
05/09 20:40 12.6 93 10.29 11.5 9 13 1013.1 0 23.3 29.1 47.5 125.0 123.3 425.5
05/09 20:30 12.7 93 10.35 11.6 9 13 1013.1 0 23.4 29.2 47.7 125.6 124.0 427.9
05/09 20:20 12.7 94 10.46 11.8 9 11 1013.1 0 23.6 29.4 48.2 126.9 125.6 433.4
05/09 20:10 12.6 94 10.4 11.7 7 11 1013.1 0 23.5 29.3 48.0 126.3 124.9 431.0
05/09 20:00 12.6 94 10.4 11.7 7 9 1013.1 0 23.5 29.3 48.0 126.3 124.9 431.0
05/09 19:50 12.6 94 10.4 11.7 7 9 1013.1 0 23.5 29.3 48.0 126.3 124.9 431.0
05/09 19:40 12.5 94 10.34 11.6 9 11 1013.1 0 23.4 29.2 47.8 125.8 124.2 428.6
05/09 19:30 12.5 94 10.34 11.6 7 11 1013.1 0 23.4 29.2 47.8 125.8 124.2 428.6
05/09 19:20 12.5 94 10.34 11.6 9 13 1013.1 0 23.4 29.2 47.8 125.8 124.2 428.6
05/09 19:10 12.6 94 10.4 11.7 7 9 1013.1 0 23.5 29.3 48.0 126.3 124.9 431.0
05/09 19:00 12.6 94 10.4 11.7 9 11 1013.1 0 23.5 29.3 48.0 126.3 124.9 431.0

Last Refresh: 06-Sep-2026 13:06:44

Bureau of Meteorology